createdAt,value
2023-05-23T00:00:48.420Z,18.80
2023-05-23T00:03:17.881Z,18.80
2023-05-23T00:05:48.274Z,18.80
2023-05-23T00:08:16.562Z,18.90
2023-05-23T00:10:44.758Z,18.80
2023-05-23T00:13:17.096Z,18.90
2023-05-23T00:15:46.648Z,18.90
2023-05-23T00:18:16.870Z,18.80
2023-05-23T00:20:47.189Z,18.90
2023-05-23T00:23:18.982Z,18.80
2023-05-23T00:25:55.640Z,18.70
2023-05-23T00:28:24.093Z,18.60
2023-05-23T00:30:52.160Z,18.60
2023-05-23T00:33:22.609Z,18.70
2023-05-23T00:35:52.186Z,18.70
2023-05-23T00:38:21.393Z,18.40
2023-05-23T00:40:49.423Z,18.50
2023-05-23T00:43:22.126Z,18.20
2023-05-23T00:45:50.629Z,18.10
2023-05-23T00:48:19.210Z,17.90
2023-05-23T00:50:48.180Z,17.90
2023-05-23T00:53:17.934Z,17.60
2023-05-23T00:55:48.135Z,17.30
2023-05-23T00:58:17.620Z,17.30
2023-05-23T01:00:47.846Z,17.40
2023-05-23T01:03:20.526Z,17.30
2023-05-23T01:05:49.654Z,17.10
2023-05-23T01:08:19.068Z,17.10
2023-05-23T01:10:47.629Z,16.90
2023-05-23T01:13:26.147Z,17.00
2023-05-23T01:16:03.136Z,17.00
2023-05-23T01:18:41.069Z,16.90
2023-05-23T01:21:16.190Z,16.90
2023-05-23T01:24:28.255Z,16.90
2023-05-23T01:27:08.837Z,17.00
2023-05-23T01:29:46.414Z,16.90
2023-05-23T01:32:16.853Z,17.00
2023-05-23T01:34:47.090Z,17.10
2023-05-23T01:37:20.127Z,17.20
2023-05-23T01:39:48.386Z,17.50
2023-05-23T01:42:17.295Z,17.50
2023-05-23T01:44:49.278Z,17.70
2023-05-23T01:47:19.065Z,17.70
2023-05-23T01:49:48.536Z,17.70
2023-05-23T01:52:17.582Z,17.80
2023-05-23T01:54:49.954Z,17.90
2023-05-23T01:57:18.920Z,17.70
2023-05-23T01:59:48.431Z,17.70
2023-05-23T02:02:17.320Z,17.70
2023-05-23T02:04:46.134Z,17.90
2023-05-23T02:07:14.734Z,17.80
2023-05-23T02:09:43.230Z,18.00
2023-05-23T02:12:15.241Z,18.30
2023-05-23T02:14:43.372Z,18.30
2023-05-23T02:17:15.065Z,18.30
2023-05-23T02:19:43.805Z,18.30
2023-05-23T02:22:12.495Z,18.00
2023-05-23T02:24:41.315Z,18.00
2023-05-23T02:27:10.539Z,17.90
2023-05-23T02:29:38.778Z,17.80
2023-05-23T02:32:07.642Z,18.10
2023-05-23T02:34:39.113Z,18.00
2023-05-23T02:37:08.010Z,18.20
2023-05-23T02:39:39.210Z,18.30
2023-05-23T02:42:07.735Z,18.20
2023-05-23T02:44:38.163Z,18.30
2023-05-23T02:47:07.424Z,18.30
2023-05-23T02:49:38.286Z,18.20
2023-05-23T02:52:08.318Z,18.20
2023-05-23T02:54:37.296Z,18.30
2023-05-23T02:57:06.905Z,18.00
2023-05-23T02:59:38.940Z,18.00
2023-05-23T03:02:08.098Z,17.90
2023-05-23T03:04:38.141Z,17.90
2023-05-23T03:07:11.660Z,17.80
2023-05-23T03:09:42.397Z,17.90
2023-05-23T03:12:11.004Z,17.90
2023-05-23T03:14:39.177Z,17.80
2023-05-23T03:17:07.879Z,17.80
2023-05-23T03:19:37.981Z,17.80
2023-05-23T03:22:06.579Z,18.00
2023-05-23T03:24:35.103Z,18.00
2023-05-23T03:27:03.260Z,17.50
2023-05-23T03:29:32.776Z,17.40
2023-05-23T03:32:02.320Z,17.20
2023-05-23T03:34:33.093Z,17.10
2023-05-23T03:37:03.062Z,17.30
2023-05-23T03:39:32.364Z,17.20
2023-05-23T03:42:00.529Z,17.20
2023-05-23T03:44:32.533Z,17.00
2023-05-23T03:47:04.504Z,16.70
2023-05-23T03:49:37.266Z,16.80
2023-05-23T03:52:07.472Z,16.90
2023-05-23T03:54:37.002Z,16.80
2023-05-23T03:57:05.559Z,16.80
2023-05-23T03:59:35.957Z,16.70
2023-05-23T04:02:07.892Z,16.60
2023-05-23T04:04:37.223Z,16.50
2023-05-23T04:07:09.691Z,16.50
2023-05-23T04:09:38.290Z,16.50
2023-05-23T04:12:10.101Z,16.60
2023-05-23T04:14:39.355Z,16.60
2023-05-23T04:17:09.453Z,16.70
2023-05-23T04:19:39.256Z,16.80
2023-05-23T04:22:09.576Z,16.70
2023-05-23T04:24:39.399Z,16.90
2023-05-23T04:27:08.470Z,17.10
2023-05-23T04:29:38.594Z,16.90
2023-05-23T04:32:07.981Z,16.90
2023-05-23T04:34:38.306Z,16.70
2023-05-23T04:37:07.150Z,16.70
2023-05-23T04:39:37.167Z,17.00
2023-05-23T04:42:25.064Z,16.80
2023-05-23T04:45:12.423Z,16.60
2023-05-23T04:50:56.581Z,16.50
2023-05-23T04:53:25.751Z,16.90
2023-05-23T04:55:57.264Z,16.80
2023-05-23T04:58:25.800Z,16.70
2023-05-23T05:00:57.773Z,16.80
2023-05-23T05:03:27.307Z,16.60
2023-05-23T05:05:56.190Z,16.60
2023-05-23T05:08:24.672Z,16.90
2023-05-23T05:10:53.286Z,16.90
2023-05-23T05:13:23.339Z,16.90
2023-05-23T05:15:54.319Z,16.70
2023-05-23T05:18:25.293Z,16.70
2023-05-23T05:21:17.150Z,16.50
2023-05-23T05:23:45.767Z,16.50
2023-05-23T05:26:17.473Z,16.20
2023-05-23T05:28:49.388Z,16.30
2023-05-23T05:31:18.436Z,16.40
2023-05-23T05:33:47.147Z,16.60
2023-05-23T05:36:17.096Z,17.00
2023-05-23T05:38:47.280Z,17.30
2023-05-23T05:41:19.479Z,17.50
2023-05-23T05:43:52.811Z,17.00
2023-05-23T05:46:21.800Z,16.90
2023-05-23T05:48:50.492Z,16.60
2023-05-23T05:51:19.744Z,16.40
2023-05-23T05:53:49.731Z,16.20
2023-05-23T05:56:18.769Z,16.10
2023-05-23T05:58:47.423Z,15.90
2023-05-23T06:01:18.990Z,15.90
2023-05-23T06:03:49.536Z,15.90
2023-05-23T06:06:19.653Z,15.90
2023-05-23T06:08:52.533Z,16.00
2023-05-23T06:11:23.425Z,16.00
2023-05-23T06:13:52.289Z,15.70
2023-05-23T06:16:22.186Z,15.90
2023-05-23T06:18:50.989Z,15.80
2023-05-23T06:21:20.345Z,15.70
2023-05-23T06:23:50.988Z,15.80
2023-05-23T06:26:19.250Z,15.90
2023-05-23T06:28:47.444Z,16.00
2023-05-23T06:31:15.643Z,15.80
2023-05-23T06:33:45.043Z,15.70
2023-05-23T06:36:14.260Z,15.90
2023-05-23T06:38:42.869Z,16.10
2023-05-23T06:41:15.627Z,16.00
2023-05-23T06:43:44.286Z,15.90
2023-05-23T06:46:20.272Z,15.80
2023-05-23T06:48:56.667Z,15.80
2023-05-23T06:51:32.783Z,15.70
2023-05-23T06:54:01.835Z,15.60
2023-05-23T06:56:30.782Z,15.60
2023-05-23T06:59:00.161Z,15.50
2023-05-23T07:01:30.403Z,15.40
2023-05-23T07:04:01.314Z,15.60
2023-05-23T07:06:31.684Z,15.50
2023-05-23T07:09:00.735Z,15.40
2023-05-23T07:11:29.109Z,15.30
2023-05-23T07:14:00.952Z,15.20
2023-05-23T07:16:49.117Z,15.20
2023-05-23T07:19:19.858Z,15.20
2023-05-23T07:21:54.372Z,15.40
2023-05-23T07:24:25.286Z,15.40
2023-05-23T07:26:56.465Z,15.50
2023-05-23T07:29:25.513Z,15.30
2023-05-23T07:31:55.364Z,15.20
2023-05-23T07:34:26.799Z,15.10
2023-05-23T07:36:58.556Z,15.20
2023-05-23T07:39:29.352Z,15.40
2023-05-23T07:42:01.363Z,15.10
2023-05-23T07:44:29.610Z,14.90
2023-05-23T07:46:57.871Z,14.80
2023-05-23T07:49:28.468Z,14.90
2023-05-23T07:51:57.148Z,14.90
2023-05-23T07:54:25.482Z,15.00
2023-05-23T07:56:57.969Z,15.00
2023-05-23T07:59:27.138Z,15.20
2023-05-23T08:01:55.980Z,15.30
2023-05-23T08:04:28.453Z,15.40
2023-05-23T08:07:05.020Z,15.30
2023-05-23T08:09:51.410Z,15.50
2023-05-23T08:12:21.341Z,15.50
2023-05-23T08:14:59.385Z,15.60
2023-05-23T08:17:34.128Z,15.40
2023-05-23T08:20:08.806Z,15.50
2023-05-23T08:22:38.322Z,15.50
2023-05-23T08:25:11.360Z,15.40
2023-05-23T08:27:41.469Z,15.20
2023-05-23T08:30:26.430Z,15.30
2023-05-23T08:32:55.948Z,15.40
2023-05-23T08:35:26.066Z,15.40
2023-05-23T08:37:56.327Z,15.30
2023-05-23T08:40:25.685Z,15.40
2023-05-23T08:43:05.801Z,15.30
2023-05-23T08:45:35.418Z,15.20
2023-05-23T08:48:10.383Z,15.20
2023-05-23T08:50:49.305Z,15.00
2023-05-23T08:53:24.536Z,15.20
2023-05-23T08:56:02.641Z,15.20
2023-05-23T08:58:42.313Z,15.00
2023-05-23T09:01:12.038Z,14.90
2023-05-23T09:03:43.275Z,15.20
2023-05-23T09:06:33.651Z,15.30
2023-05-23T09:09:06.102Z,15.30
2023-05-23T09:11:36.501Z,15.10
2023-05-23T09:14:08.491Z,15.10
2023-05-23T09:16:37.721Z,15.10
2023-05-23T09:19:13.802Z,15.10
2023-05-23T09:21:49.834Z,14.80
2023-05-23T09:24:43.188Z,14.50
2023-05-23T09:27:12.643Z,14.60
2023-05-23T09:29:41.121Z,14.80
2023-05-23T09:32:13.202Z,14.80
2023-05-23T09:34:42.947Z,14.90
2023-05-23T09:37:19.463Z,15.00
2023-05-23T09:39:49.197Z,14.70
2023-05-23T09:42:23.140Z,14.50
2023-05-23T09:44:52.295Z,14.60
2023-05-23T09:47:20.508Z,14.60
2023-05-23T09:49:49.665Z,14.40
2023-05-23T09:52:20.555Z,14.30
2023-05-23T09:54:51.890Z,14.50
2023-05-23T09:57:23.211Z,14.40
2023-05-23T10:02:59.419Z,14.60
2023-05-23T10:05:40.442Z,14.80
2023-05-23T10:08:15.527Z,15.10
2023-05-23T10:11:32.557Z,14.90
2023-05-23T10:14:04.417Z,14.90
2023-05-23T10:16:41.948Z,14.60
2023-05-23T10:19:22.100Z,14.60
2023-05-23T10:21:52.933Z,14.50
2023-05-23T10:24:31.849Z,14.50
2023-05-23T10:27:00.431Z,14.60
2023-05-23T10:29:30.148Z,14.70
2023-05-23T10:32:00.117Z,14.90
2023-05-23T10:34:36.330Z,14.60
2023-05-23T10:37:06.164Z,14.60
2023-05-23T10:39:58.489Z,14.50
2023-05-23T10:42:37.375Z,14.70
2023-05-23T10:45:16.845Z,14.60
2023-05-23T10:47:45.488Z,14.80
2023-05-23T10:50:15.468Z,14.90
2023-05-23T10:52:45.510Z,14.90
2023-05-23T10:55:18.155Z,14.80
2023-05-23T10:57:48.820Z,14.70
2023-05-23T11:00:20.214Z,14.60
2023-05-23T11:02:56.574Z,14.50
2023-05-23T11:05:28.155Z,14.70
2023-05-23T11:08:14.489Z,14.90
2023-05-23T11:10:59.636Z,15.20
2023-05-23T11:13:50.828Z,15.50
2023-05-23T11:16:31.574Z,15.90
2023-05-23T11:19:25.970Z,16.30
2023-05-23T11:21:59.735Z,16.30
2023-05-23T11:24:49.768Z,16.30
2023-05-23T11:27:27.084Z,16.10
2023-05-23T11:30:07.478Z,15.70
2023-05-23T11:32:37.750Z,15.60
2023-05-23T11:35:07.817Z,15.50
2023-05-23T11:37:37.401Z,15.50
2023-05-23T11:40:29.428Z,15.60
2023-05-23T11:43:00.376Z,15.30
2023-05-23T11:45:32.185Z,15.50
2023-05-23T11:48:13.075Z,15.60
2023-05-23T11:50:50.272Z,15.30
2023-05-23T11:53:26.134Z,15.20
2023-05-23T11:55:58.048Z,15.30
2023-05-23T11:58:31.152Z,15.30
2023-05-23T12:01:03.582Z,15.20
2023-05-23T12:03:32.296Z,15.60
2023-05-23T12:06:00.827Z,15.90
2023-05-23T12:08:29.743Z,16.00
2023-05-23T12:11:02.323Z,16.00
2023-05-23T12:13:33.526Z,16.40
2023-05-23T12:16:03.168Z,16.10
2023-05-23T12:18:34.324Z,15.90
2023-05-23T12:21:03.624Z,15.60
2023-05-23T12:23:34.972Z,15.80
2023-05-23T12:26:08.338Z,15.70
2023-05-23T12:28:38.962Z,15.90
2023-05-23T12:31:12.768Z,16.00
2023-05-23T12:33:44.252Z,16.40
2023-05-23T12:36:12.885Z,16.30
2023-05-23T12:38:45.156Z,16.40
2023-05-23T12:41:17.435Z,16.80
2023-05-23T12:43:53.494Z,16.80
2023-05-23T12:46:23.158Z,16.50
2023-05-23T12:48:51.863Z,16.40
2023-05-23T12:51:21.448Z,16.40
2023-05-23T12:53:49.615Z,16.40
2023-05-23T12:56:18.309Z,16.40
2023-05-23T12:58:47.551Z,16.60
2023-05-23T13:01:17.133Z,16.80
2023-05-23T13:03:45.692Z,17.20
2023-05-23T13:06:13.864Z,17.50
2023-05-23T13:08:42.656Z,17.70
2023-05-23T13:11:10.874Z,17.80
2023-05-23T13:13:43.046Z,18.40
2023-05-23T13:16:11.121Z,18.70
2023-05-23T13:18:43.584Z,18.60
2023-05-23T13:21:11.935Z,18.20
2023-05-23T13:23:41.232Z,18.30
2023-05-23T13:26:10.569Z,18.70
2023-05-23T13:28:38.695Z,18.60
2023-05-23T13:31:08.765Z,18.60
2023-05-23T13:33:40.037Z,18.80
2023-05-23T13:36:10.553Z,19.20
2023-05-23T13:38:38.914Z,19.20
2023-05-23T13:41:08.166Z,19.40
2023-05-23T13:43:36.796Z,19.40
2023-05-23T13:46:05.001Z,19.00
2023-05-23T13:48:35.193Z,19.00
2023-05-23T13:51:04.320Z,18.50
2023-05-23T13:53:33.874Z,18.30
2023-05-23T13:56:03.647Z,17.90
2023-05-23T13:58:32.904Z,17.90
2023-05-23T14:01:02.593Z,17.90
2023-05-23T14:03:32.585Z,17.70
2023-05-23T14:06:00.616Z,17.80
2023-05-23T14:08:29.592Z,17.80
2023-05-23T14:10:58.991Z,18.00
2023-05-23T14:13:28.582Z,18.30
2023-05-23T14:15:56.768Z,18.50
2023-05-23T14:18:26.611Z,18.60
2023-05-23T14:20:54.675Z,18.80
2023-05-23T14:23:23.510Z,18.90
2023-05-23T14:25:52.081Z,19.20
2023-05-23T14:28:21.575Z,19.00
2023-05-23T14:30:51.004Z,18.90
2023-05-23T14:33:19.472Z,19.10
2023-05-23T14:35:48.781Z,19.00
2023-05-23T14:38:16.878Z,18.40
2023-05-23T14:40:46.118Z,18.40
2023-05-23T14:43:14.405Z,18.20
2023-05-23T14:45:44.969Z,18.40
2023-05-23T14:48:13.325Z,18.30
2023-05-23T14:50:43.387Z,18.00
2023-05-23T14:53:12.024Z,17.70
2023-05-23T14:55:42.241Z,17.70
2023-05-23T14:58:11.040Z,17.90
2023-05-23T15:00:40.579Z,18.40
2023-05-23T15:03:12.441Z,18.40
2023-05-23T15:05:40.825Z,18.60
2023-05-23T15:08:10.622Z,19.00
2023-05-23T15:10:38.717Z,18.80
2023-05-23T15:13:07.701Z,18.80
2023-05-23T15:15:39.922Z,18.90
2023-05-23T15:18:12.426Z,19.00
2023-05-23T15:20:45.792Z,18.40
2023-05-23T15:23:16.646Z,18.20
2023-05-23T15:25:49.516Z,18.10
2023-05-23T15:28:20.628Z,17.90
2023-05-23T15:30:50.650Z,17.90
2023-05-23T15:33:20.105Z,18.20
2023-05-23T15:35:48.853Z,18.30
2023-05-23T15:38:19.277Z,18.30
2023-05-23T15:40:49.161Z,18.10
2023-05-23T15:43:17.248Z,17.60
2023-05-23T15:45:45.869Z,17.30
2023-05-23T15:48:15.692Z,17.10
2023-05-23T15:50:46.055Z,17.20
2023-05-23T15:53:15.036Z,17.30
2023-05-23T15:55:43.548Z,17.40
2023-05-23T15:58:11.802Z,17.80
2023-05-23T16:00:40.584Z,17.90
2023-05-23T16:03:08.763Z,18.10
2023-05-23T16:05:39.750Z,17.90
2023-05-23T16:08:09.392Z,18.10
2023-05-23T16:10:39.695Z,18.10
2023-05-23T16:13:08.982Z,18.30
2023-05-23T16:15:37.510Z,17.80
2023-05-23T16:18:05.982Z,17.60
2023-05-23T16:20:35.517Z,17.70
2023-05-23T16:23:04.018Z,17.30
2023-05-23T16:25:34.364Z,17.20
2023-05-23T16:28:02.454Z,17.20
2023-05-23T16:30:31.425Z,17.60
2023-05-23T16:32:59.556Z,17.40
2023-05-23T16:35:27.672Z,17.30
2023-05-23T16:37:57.665Z,17.40
2023-05-23T16:40:25.772Z,17.70
2023-05-23T16:42:55.268Z,17.80
2023-05-23T16:45:23.875Z,17.60
2023-05-23T16:47:52.064Z,17.70
2023-05-23T16:50:20.652Z,17.50
2023-05-23T16:52:48.798Z,17.30
2023-05-23T16:55:17.896Z,17.80
2023-05-23T16:57:46.565Z,17.30
2023-05-23T17:00:17.346Z,17.10
2023-05-23T17:02:45.670Z,17.00
2023-05-23T17:05:14.890Z,16.50
2023-05-23T17:07:43.698Z,16.80
2023-05-23T17:10:12.445Z,16.80
2023-05-23T17:12:41.840Z,16.80
2023-05-23T17:15:10.825Z,16.90
2023-05-23T17:17:42.279Z,17.10
2023-05-23T17:20:14.231Z,17.20
2023-05-23T17:22:42.915Z,17.00
2023-05-23T17:25:11.302Z,16.90
2023-05-23T17:27:47.455Z,16.60
2023-05-23T17:30:18.870Z,16.80
2023-05-23T17:32:49.908Z,17.00
2023-05-23T17:35:19.327Z,17.10
2023-05-23T17:37:47.910Z,17.30
2023-05-23T17:40:16.974Z,17.60
2023-05-23T17:42:45.991Z,17.80
2023-05-23T17:45:14.723Z,17.80
2023-05-23T17:47:42.883Z,17.60
2023-05-23T17:50:13.556Z,16.90
2023-05-23T17:52:42.183Z,16.50
2023-05-23T17:55:12.748Z,16.30
2023-05-23T17:57:41.077Z,16.20
2023-05-23T18:00:11.423Z,16.00
2023-05-23T18:02:42.237Z,16.20
2023-05-23T18:05:14.520Z,16.50
2023-05-23T18:07:44.459Z,16.60
2023-05-23T18:10:13.081Z,16.40
2023-05-23T18:12:42.163Z,16.20
2023-05-23T18:15:11.449Z,16.00
2023-05-23T18:17:40.255Z,15.80
2023-05-23T18:20:09.631Z,15.90
2023-05-23T18:22:37.809Z,15.90
2023-05-23T18:25:08.413Z,15.80
2023-05-23T18:27:37.421Z,16.10
2023-05-23T18:30:06.583Z,15.80
2023-05-23T18:32:35.165Z,16.00
2023-05-23T18:35:03.569Z,16.00
2023-05-23T18:37:32.687Z,16.10
2023-05-23T18:40:00.843Z,16.20
2023-05-23T18:42:32.442Z,16.10
2023-05-23T18:45:00.512Z,16.30
2023-05-23T18:47:29.130Z,16.20
2023-05-23T18:49:58.491Z,16.00
2023-05-23T18:52:27.269Z,16.10
2023-05-23T18:54:55.402Z,16.10
2023-05-23T18:57:24.835Z,16.30
2023-05-23T18:59:54.855Z,16.50
2023-05-23T19:02:23.793Z,16.50
2023-05-23T19:04:53.773Z,16.70
2023-05-23T19:07:22.103Z,16.50
2023-05-23T19:09:51.128Z,16.50
2023-05-23T19:12:20.080Z,16.20
2023-05-23T19:14:48.258Z,16.00
2023-05-23T19:17:18.460Z,15.90
2023-05-23T19:19:46.701Z,16.10
2023-05-23T19:22:16.041Z,16.40
2023-05-23T19:24:48.066Z,16.60
2023-05-23T19:27:17.149Z,16.40
2023-05-23T19:29:46.775Z,16.10
2023-05-23T19:32:15.131Z,16.30
2023-05-23T19:34:45.121Z,16.20
2023-05-23T19:37:14.004Z,16.00
2023-05-23T19:39:46.404Z,15.90
2023-05-23T19:42:14.923Z,16.00
2023-05-23T19:44:45.499Z,15.90
2023-05-23T19:47:15.799Z,15.70
2023-05-23T19:49:46.060Z,15.60
2023-05-23T19:52:17.884Z,15.70
2023-05-23T19:54:48.275Z,15.40
2023-05-23T19:57:16.499Z,15.50
2023-05-23T19:59:44.542Z,15.70
2023-05-23T20:02:13.741Z,16.10
2023-05-23T20:04:42.466Z,16.20
2023-05-23T20:07:14.934Z,15.90
2023-05-23T20:09:43.840Z,15.70
2023-05-23T20:12:12.474Z,15.50
2023-05-23T20:14:40.999Z,15.60
2023-05-23T20:17:12.575Z,15.30
2023-05-23T20:19:41.254Z,15.30
2023-05-23T20:22:10.708Z,15.20
2023-05-23T20:24:39.229Z,15.10
2023-05-23T20:27:08.828Z,15.10
2023-05-23T20:29:37.942Z,15.40
2023-05-23T20:32:06.795Z,15.40
2023-05-23T20:34:35.582Z,15.60
2023-05-23T20:37:05.065Z,15.50
2023-05-23T20:39:34.871Z,15.50
2023-05-23T20:42:06.826Z,15.40
2023-05-23T20:44:38.323Z,15.30
2023-05-23T20:47:07.084Z,15.40
2023-05-23T20:49:37.269Z,15.00
2023-05-23T20:52:06.456Z,15.00
2023-05-23T20:54:36.940Z,14.80
2023-05-23T20:57:06.839Z,14.60
2023-05-23T20:59:35.603Z,14.80
2023-05-23T21:02:04.835Z,15.00
2023-05-23T21:04:32.958Z,15.40
2023-05-23T21:07:01.333Z,15.20
2023-05-23T21:09:30.345Z,15.00
2023-05-23T21:12:12.154Z,15.40
2023-05-23T21:14:41.077Z,15.70
2023-05-23T21:17:09.281Z,15.60
2023-05-23T21:19:37.523Z,15.50
2023-05-23T21:22:06.216Z,15.40
2023-05-23T21:24:34.371Z,15.60
2023-05-23T21:27:02.910Z,15.60
2023-05-23T21:29:34.279Z,15.60
2023-05-23T21:32:02.499Z,15.00
2023-05-23T21:34:30.604Z,15.00
2023-05-23T21:36:59.410Z,14.80
2023-05-23T21:39:39.248Z,14.80
2023-05-23T21:42:15.907Z,14.70
2023-05-23T21:44:46.317Z,15.00
2023-05-23T21:47:14.935Z,15.10
2023-05-23T21:49:43.284Z,14.90
2023-05-23T21:52:11.452Z,14.50
2023-05-23T21:54:40.432Z,14.30
2023-05-23T21:57:08.539Z,14.50
2023-05-23T21:59:37.748Z,14.50
2023-05-23T22:02:07.550Z,14.30
2023-05-23T22:04:38.647Z,14.40
2023-05-23T22:07:06.756Z,14.60
2023-05-23T22:09:36.862Z,14.60
2023-05-23T22:12:05.433Z,14.80
2023-05-23T22:14:38.030Z,14.90
2023-05-23T22:17:09.119Z,14.90
2023-05-23T22:19:37.580Z,15.10
2023-05-23T22:22:08.877Z,15.10
2023-05-23T22:24:37.457Z,15.00
2023-05-23T22:27:07.054Z,15.00
2023-05-23T22:29:35.178Z,14.90
2023-05-23T22:32:03.823Z,14.90
2023-05-23T22:34:33.925Z,14.90
2023-05-23T22:37:02.381Z,14.80
2023-05-23T22:39:30.887Z,14.60
2023-05-23T22:41:59.179Z,14.10
2023-05-23T22:44:27.453Z,14.00
2023-05-23T22:46:57.109Z,14.20
2023-05-23T22:49:29.954Z,14.30
2023-05-23T22:51:59.582Z,14.10
2023-05-23T22:54:28.506Z,14.30
2023-05-23T22:56:56.693Z,14.30
2023-05-23T22:59:25.684Z,13.90
2023-05-23T23:01:53.754Z,13.80
2023-05-23T23:04:23.509Z,13.90
2023-05-23T23:06:53.914Z,13.60
2023-05-23T23:09:25.993Z,13.70
2023-05-23T23:11:55.253Z,13.40
2023-05-23T23:14:23.694Z,13.20
2023-05-23T23:16:53.803Z,13.20
2023-05-23T23:19:22.616Z,13.50
2023-05-23T23:21:51.643Z,13.70
2023-05-23T23:24:19.840Z,13.40
2023-05-23T23:26:49.800Z,13.70
2023-05-23T23:29:18.280Z,13.70
2023-05-23T23:31:48.045Z,14.00
2023-05-23T23:34:16.247Z,13.90
2023-05-23T23:36:44.297Z,14.10
2023-05-23T23:39:14.163Z,14.30
2023-05-23T23:41:42.287Z,14.30
2023-05-23T23:44:12.380Z,14.30
2023-05-23T23:46:40.675Z,14.40
2023-05-23T23:49:08.783Z,14.40
2023-05-23T23:51:38.284Z,14.20
2023-05-23T23:54:06.408Z,14.20
2023-05-23T23:56:34.488Z,14.10
2023-05-23T23:59:03.159Z,14.10
